Observations for BLACKPOOL AIRPORT, United Kingdom (EGNH)

EGNH 172050Z 12004KT CAVOK 03/02 Q1020  
EGNH 172020Z 14005KT CAVOK 02/01 Q1020  
EGNH 171950Z 19006KT CAVOK 02/01 Q1020  
EGNH 171920Z 15005KT CAVOK 03/01 Q1020  
EGNH 171850Z 18007KT 9999 FEW032 04/02 Q1020
EGNH 171820Z 19005KT 9999 FEW033 BKN036 05/03 Q1020 
EGNH 171750Z 18005KT 9999 SCT035 05/03 Q1019
EGNH 171720Z 18005KT 9999 FEW035 05/03 Q1019
EGNH 171650Z 20007KT 9999 FEW045 06/04 Q1019
EGNH 171620Z 21008KT 9999 FEW048 07/05 Q1019
EGNH 171550Z 21008KT 9999 FEW048 08/06 Q1019
EGNH 171520Z 20008KT 9999 FEW047 08/06 Q1019
EGNH 171450Z 22008KT 9999 FEW045 08/06 Q1019
EGNH 171420Z 21009KT 9999 FEW045 08/06 Q1019
EGNH 171350Z 23009KT 9999 FEW041 08/06 Q1019
EGNH 171320Z 23011KT 9999 FEW010 FEW015CB 08/06 Q1019   
EGNH 171250Z 21009KT 9999 FEW010 07/05 Q1019
EGNH 171220Z 21011KT 9999 FEW010 08/06 Q1019
EGNH 171150Z 21010KT 9999 FEW021 08/06 Q1019
EGNH 171120Z 21010KT 9999 SCT021 07/06 Q1019
EGNH 171050Z 20011KT 9999 FEW010 BKN013 07/06 Q1019 
EGNH 171020Z 18009KT 9999 BKN009 06/05 Q1019
EGNH 170950Z 18009KT 9999 BKN009 05/04 Q1018
EGNH 170920Z 16009KT 9999 BKN011 05/04 Q1018
EGNH 170850Z 17009KT 9999 BKN010 05/04 Q1018
EGNH 170820Z 17011KT 9999 SCT005 BKN017 05/03 Q1018 
EGNH 170750Z 16012KT 9999 BKN017 05/03 Q1018
EGNH 170720Z 15011KT 9999 -DZ FEW012 BKN020 04/03 Q1018 
EGNH 170650Z 15011KT 9999 -DZRA FEW010 BKN022 05/04 Q1017   
EGNH 170620Z 15014KT 9999 -DZ BKN023 05/03 Q1017